Arrow Rock, Missouri
Current Conditions -  °F | °C
As of 7:55 PM on Monday 20 Oct 2014 (Local Time) from KVER Reporting Station
Clear Clear  
Wind Chill: 62°   Ceiling: Unl
Heat Index: 62°   Visibility: 10mi
Dew Point: 41°   Wind: 0mph
Humidity: 47%   Direction: NA
Pressure: 30.03"   Gusts: NA
Location:  39.07°N, 92.95°W
Report Text: KVER 210055Z AUTO 00000KT 10SM CLR 17/05 A3003 RMK AO2 T01660051
Loading
Personal Weather Stations






























Interactive Weather Map New forecast layout! Learn more

10-Day Weather Forecast

Advertisements
Track Severe Weather on mobile